createdAt,value
2023-04-04T00:00:41.681Z,3.70
2023-04-04T00:05:48.952Z,2.38
2023-04-04T00:11:00.595Z,1.58
2023-04-04T00:13:34.235Z,1.50
2023-04-04T00:18:41.471Z,1.42
2023-04-04T00:21:14.761Z,2.55
2023-04-04T00:23:48.180Z,2.38
2023-04-04T00:26:22.987Z,1.85
2023-04-04T00:28:56.413Z,2.15
2023-04-04T00:31:29.733Z,1.30
2023-04-04T00:34:03.071Z,2.63
2023-04-04T00:36:36.587Z,1.70
2023-04-04T00:39:09.925Z,2.45
2023-04-04T00:41:44.826Z,1.65
2023-04-04T00:44:18.394Z,1.50
2023-04-04T00:46:52.953Z,2.33
2023-04-04T00:49:26.320Z,1.90
2023-04-04T00:51:59.774Z,2.13
2023-04-04T00:54:33.180Z,1.38
2023-04-04T00:57:09.911Z,1.73
2023-04-04T00:59:43.639Z,1.40
2023-04-04T01:04:50.161Z,2.05
2023-04-04T01:07:23.543Z,2.97
2023-04-04T01:09:58.577Z,1.30
2023-04-04T01:12:33.284Z,2.78
2023-04-04T01:15:07.325Z,1.60
2023-04-04T01:17:41.992Z,1.70
2023-04-04T01:20:20.657Z,1.52
2023-04-04T01:22:59.526Z,1.40
2023-04-04T01:25:34.718Z,2.38
2023-04-04T01:28:15.311Z,1.95
2023-04-04T01:30:49.024Z,1.20
2023-04-04T01:33:29.375Z,1.40
2023-04-04T01:36:12.363Z,1.50
2023-04-04T01:38:55.648Z,1.52
2023-04-04T01:41:35.436Z,2.08
2023-04-04T01:44:11.086Z,1.95
2023-04-04T01:46:45.185Z,1.85
2023-04-04T01:49:19.258Z,1.25
2023-04-04T01:51:53.686Z,1.45
2023-04-04T01:54:28.519Z,2.83
2023-04-04T01:57:03.231Z,1.90
2023-04-04T01:59:36.725Z,1.25
2023-04-04T02:02:10.048Z,2.67
2023-04-04T02:04:43.407Z,2.05
2023-04-04T02:07:16.969Z,1.90
2023-04-04T02:09:50.364Z,1.50
2023-04-04T02:12:25.082Z,1.38
2023-04-04T02:14:58.524Z,1.83
2023-04-04T02:17:32.534Z,1.30
2023-04-04T02:20:06.747Z,1.10
2023-04-04T02:22:40.063Z,1.50
2023-04-04T02:25:13.365Z,2.20
2023-04-04T02:27:48.046Z,1.75
2023-04-04T02:30:21.425Z,2.40
2023-04-04T02:32:59.705Z,2.17
2023-04-04T02:35:33.267Z,1.80
2023-04-04T02:38:06.678Z,1.35
2023-04-04T02:40:47.073Z,1.52
2023-04-04T02:43:22.349Z,1.58
2023-04-04T02:45:56.404Z,2.05
2023-04-04T02:48:31.624Z,3.33
2023-04-04T02:51:08.096Z,1.30
2023-04-04T02:53:41.497Z,1.90
2023-04-04T02:56:27.081Z,1.77
2023-04-04T02:59:02.183Z,1.50
2023-04-04T03:01:35.647Z,2.25
2023-04-04T03:04:11.158Z,1.67
2023-04-04T03:09:17.785Z,1.92
2023-04-04T03:11:52.368Z,1.73
2023-04-04T03:14:27.062Z,2.00
2023-04-04T03:17:02.453Z,1.98
2023-04-04T03:19:36.099Z,1.63
2023-04-04T03:22:09.404Z,1.52
2023-04-04T03:24:42.738Z,1.88
2023-04-04T03:27:16.283Z,1.67
2023-04-04T03:29:51.027Z,1.60
2023-04-04T03:32:24.412Z,1.65
2023-04-04T03:34:57.783Z,3.33
2023-04-04T03:37:31.279Z,2.60
2023-04-04T03:40:05.136Z,2.22
2023-04-04T03:45:17.227Z,1.30
2023-04-04T03:47:50.844Z,1.15
2023-04-04T03:50:24.856Z,1.85
2023-04-04T03:52:59.774Z,2.03
2023-04-04T03:55:34.695Z,2.58
2023-04-04T03:58:08.035Z,1.60
2023-04-04T04:00:42.750Z,3.92
2023-04-04T04:03:17.275Z,1.77
2023-04-04T04:05:53.582Z,2.75
2023-04-04T04:08:27.840Z,1.38
2023-04-04T04:11:05.581Z,1.98
2023-04-04T04:13:40.224Z,2.40
2023-04-04T04:16:15.558Z,1.88
2023-04-04T04:18:49.023Z,2.55
2023-04-04T04:21:29.744Z,2.33
2023-04-04T04:24:03.265Z,1.80
2023-04-04T04:26:36.599Z,2.70
2023-04-04T04:29:10.161Z,4.45
2023-04-04T04:31:45.068Z,3.25
2023-04-04T04:34:18.845Z,3.63
2023-04-04T04:36:53.867Z,1.55
2023-04-04T04:39:31.478Z,2.05
2023-04-04T04:42:24.343Z,2.50
2023-04-04T04:45:02.512Z,3.03
2023-04-04T04:47:41.053Z,1.73
2023-04-04T04:50:16.238Z,2.53
2023-04-04T04:52:52.473Z,1.92
2023-04-04T04:58:10.835Z,4.88
2023-04-04T05:00:47.374Z,2.85
2023-04-04T05:03:22.181Z,2.38
2023-04-04T05:05:57.413Z,1.70
2023-04-04T05:08:30.927Z,4.65
2023-04-04T05:11:12.594Z,1.67
2023-04-04T05:13:46.347Z,2.58
2023-04-04T05:18:57.991Z,2.00
2023-04-04T05:21:31.320Z,1.90
2023-04-04T05:24:06.765Z,2.85
2023-04-04T05:26:43.514Z,1.40
2023-04-04T05:29:17.044Z,4.97
2023-04-04T05:31:53.454Z,3.97
2023-04-04T05:34:30.428Z,2.70
2023-04-04T05:37:04.083Z,2.60
2023-04-04T05:39:39.525Z,3.53
2023-04-04T05:42:15.555Z,2.35
2023-04-04T05:44:54.193Z,2.85
2023-04-04T05:50:02.872Z,3.90
2023-04-04T05:52:39.126Z,4.13
2023-04-04T05:55:16.836Z,8.65
2023-04-04T05:57:50.884Z,5.95
2023-04-04T06:00:31.056Z,4.57
2023-04-04T06:03:11.067Z,5.63
2023-04-04T06:05:46.085Z,4.38
2023-04-04T06:08:19.379Z,4.38
2023-04-04T06:10:52.562Z,4.72
2023-04-04T06:13:33.227Z,3.55
2023-04-04T06:16:12.451Z,2.15
2023-04-04T06:18:45.865Z,2.47
2023-04-04T06:21:20.555Z,9.23
2023-04-04T06:23:53.803Z,2.55
2023-04-04T06:26:27.670Z,10.68
2023-04-04T06:29:01.427Z,7.97
2023-04-04T06:31:38.190Z,7.97
2023-04-04T06:34:16.243Z,5.13
2023-04-04T06:36:59.745Z,9.77
2023-04-04T06:39:37.440Z,6.28
2023-04-04T06:42:15.195Z,2.78
2023-04-04T06:44:54.045Z,7.30
2023-04-04T06:47:27.229Z,9.15
2023-04-04T06:50:00.404Z,5.70
2023-04-04T06:52:35.013Z,5.93
2023-04-04T06:55:09.545Z,5.30
2023-04-04T06:57:42.729Z,4.15
2023-04-04T07:00:17.129Z,7.93
2023-04-04T07:02:50.556Z,5.63
2023-04-04T07:05:23.717Z,9.98
2023-04-04T07:07:58.264Z,4.50
2023-04-04T07:10:31.399Z,3.95
2023-04-04T07:13:04.613Z,5.22
2023-04-04T07:15:38.017Z,2.92
2023-04-04T07:18:11.302Z,2.38
2023-04-04T07:20:47.255Z,2.47
2023-04-04T07:23:21.764Z,3.35
2023-04-04T07:25:54.947Z,3.15
2023-04-04T07:28:28.145Z,14.45
2023-04-04T07:31:01.891Z,5.10
2023-04-04T07:36:08.148Z,6.20
2023-04-04T07:38:42.824Z,6.03
2023-04-04T07:41:15.978Z,8.73
2023-04-04T07:43:49.153Z,6.00
2023-04-04T07:46:22.395Z,3.90
2023-04-04T07:48:55.686Z,6.07
2023-04-04T07:51:30.077Z,2.25
2023-04-04T07:54:04.650Z,3.03
2023-04-04T07:56:37.809Z,2.50
2023-04-04T07:59:11.152Z,8.35
2023-04-04T08:01:46.108Z,4.25
2023-04-04T08:04:19.757Z,9.45
2023-04-04T08:06:53.152Z,4.65
2023-04-04T08:09:31.359Z,6.25
2023-04-04T08:12:05.668Z,4.45
2023-04-04T08:14:38.852Z,8.30
2023-04-04T08:17:12.221Z,3.90
2023-04-04T08:19:45.776Z,4.70
2023-04-04T08:22:19.728Z,4.80
2023-04-04T08:24:54.733Z,8.85
2023-04-04T08:27:28.124Z,6.03
2023-04-04T08:30:03.794Z,6.63
2023-04-04T08:32:37.197Z,8.88
2023-04-04T08:35:11.754Z,5.57
2023-04-04T08:37:47.959Z,6.15
2023-04-04T08:40:22.606Z,4.55
2023-04-04T08:42:55.946Z,12.25
2023-04-04T08:45:31.571Z,6.20
2023-04-04T08:48:06.166Z,7.43
2023-04-04T08:50:41.804Z,4.55
2023-04-04T08:53:16.764Z,7.38
2023-04-04T08:55:52.207Z,7.25
2023-04-04T08:58:25.555Z,3.33
2023-04-04T09:00:58.887Z,7.45
2023-04-04T09:03:35.009Z,2.65
2023-04-04T09:06:09.297Z,3.67
2023-04-04T09:08:43.867Z,8.63
2023-04-04T09:11:20.491Z,6.57
2023-04-04T09:13:55.834Z,82.20
2023-04-04T09:16:29.119Z,86.55
2023-04-04T09:19:02.494Z,159.77
2023-04-04T09:21:35.930Z,195.95
2023-04-04T09:24:12.420Z,214.38
2023-04-04T09:26:52.162Z,212.05
2023-04-04T09:29:25.326Z,192.45
2023-04-04T09:31:58.615Z,177.63
2023-04-04T09:34:31.923Z,170.57
2023-04-04T09:37:06.503Z,165.02
2023-04-04T09:39:41.422Z,149.48
2023-04-04T09:42:16.859Z,148.45
2023-04-04T09:44:54.693Z,117.40
2023-04-04T09:47:31.731Z,113.60
2023-04-04T09:50:08.408Z,113.88
2023-04-04T09:52:44.354Z,105.15
2023-04-04T09:55:18.310Z,98.55
2023-04-04T09:57:53.274Z,83.57
2023-04-04T10:00:31.565Z,93.90
2023-04-04T10:03:06.314Z,79.80
2023-04-04T10:05:39.741Z,78.18
2023-04-04T10:08:19.814Z,75.65
2023-04-04T10:11:09.629Z,67.88
2023-04-04T10:13:46.783Z,67.88
2023-04-04T10:16:20.473Z,72.95
2023-04-04T10:21:29.244Z,66.85
2023-04-04T10:24:09.263Z,52.85
2023-04-04T10:26:42.921Z,63.60
2023-04-04T10:29:18.571Z,55.38
2023-04-04T10:32:03.584Z,54.70
2023-04-04T10:34:44.232Z,50.97
2023-04-04T10:37:23.332Z,59.08
2023-04-04T10:40:06.368Z,48.53
2023-04-04T10:42:44.156Z,52.15
2023-04-04T10:45:22.034Z,45.03
2023-04-04T10:47:57.002Z,46.88
2023-04-04T10:50:31.954Z,41.20
2023-04-04T10:53:06.358Z,42.15
2023-04-04T10:55:42.140Z,44.05
2023-04-04T10:58:16.157Z,36.63
2023-04-04T11:03:28.911Z,33.88
2023-04-04T11:06:03.368Z,32.15
2023-04-04T11:08:40.978Z,32.17
2023-04-04T11:11:22.666Z,34.60
2023-04-04T11:14:01.837Z,29.45
2023-04-04T11:16:48.097Z,27.45
2023-04-04T11:19:21.633Z,28.17
2023-04-04T11:21:55.510Z,26.50
2023-04-04T11:24:29.543Z,22.30
2023-04-04T11:27:02.950Z,23.65
2023-04-04T11:29:52.679Z,25.80
2023-04-04T11:32:35.467Z,24.73
2023-04-04T11:35:09.720Z,17.15
2023-04-04T11:38:00.512Z,21.92
2023-04-04T11:40:39.204Z,24.52
2023-04-04T11:43:13.425Z,21.25
2023-04-04T11:45:47.108Z,28.58
2023-04-04T11:48:23.709Z,25.15
2023-04-04T11:50:58.578Z,17.42
2023-04-04T11:53:34.200Z,19.67
2023-04-04T11:56:07.731Z,18.17
2023-04-04T11:58:41.786Z,19.85
2023-04-04T12:01:15.158Z,17.38
2023-04-04T12:03:52.053Z,17.48
2023-04-04T12:06:25.545Z,20.05
2023-04-04T12:09:00.153Z,17.77
2023-04-04T12:11:35.854Z,14.25
2023-04-04T12:14:16.937Z,15.32
2023-04-04T12:16:52.553Z,15.50
2023-04-04T12:19:31.690Z,15.95
2023-04-04T12:22:05.973Z,11.30
2023-04-04T12:24:39.514Z,8.60
2023-04-04T12:27:13.291Z,13.40
2023-04-04T12:32:21.490Z,9.57
2023-04-04T12:35:01.997Z,15.95
2023-04-04T12:37:35.400Z,12.55
2023-04-04T12:40:11.822Z,12.85
2023-04-04T12:42:45.669Z,11.52
2023-04-04T12:47:56.974Z,9.32
2023-04-04T12:50:32.552Z,11.43
2023-04-04T12:55:49.365Z,9.07
2023-04-04T12:58:25.594Z,8.48
2023-04-04T13:01:02.640Z,8.52
2023-04-04T13:03:38.106Z,7.20
2023-04-04T13:06:19.857Z,7.80
2023-04-04T13:08:56.658Z,9.00
2023-04-04T13:11:57.499Z,13.05
2023-04-04T13:14:57.562Z,7.18
2023-04-04T13:17:47.587Z,8.60
2023-04-04T13:20:22.138Z,17.98
2023-04-04T13:22:59.828Z,9.48
2023-04-04T13:25:34.104Z,12.55
2023-04-04T13:28:07.489Z,9.57
2023-04-04T13:30:46.761Z,8.43
2023-04-04T13:33:20.550Z,10.27
2023-04-04T13:35:54.140Z,8.68
2023-04-04T13:38:30.115Z,7.45
2023-04-04T13:41:04.172Z,18.92
2023-04-04T13:43:37.905Z,7.68
2023-04-04T13:46:11.859Z,5.22
2023-04-04T13:48:45.193Z,5.18
2023-04-04T13:51:18.475Z,4.57
2023-04-04T13:53:52.984Z,5.28
2023-04-04T13:56:26.287Z,9.70
2023-04-04T13:58:59.585Z,6.78
2023-04-04T14:01:33.067Z,5.40
2023-04-04T14:04:16.548Z,5.97
2023-04-04T14:07:04.951Z,5.28
2023-04-04T14:09:40.292Z,22.20
2023-04-04T14:12:21.503Z,5.25
2023-04-04T14:14:58.878Z,7.40
2023-04-04T14:17:32.306Z,4.13
2023-04-04T14:20:06.855Z,9.05
2023-04-04T14:22:40.250Z,18.35
2023-04-04T14:25:14.863Z,9.88
2023-04-04T14:27:49.345Z,14.85
2023-04-04T14:30:22.854Z,11.98
2023-04-04T14:32:57.367Z,12.57
2023-04-04T14:35:30.808Z,7.15
2023-04-04T14:38:04.133Z,12.85
2023-04-04T14:40:38.725Z,10.38
2023-04-04T14:43:11.963Z,13.57
2023-04-04T14:45:45.125Z,9.88
2023-04-04T14:48:18.313Z,10.88
2023-04-04T14:50:52.997Z,8.70
2023-04-04T14:53:26.578Z,12.85
2023-04-04T14:56:01.153Z,12.75
2023-04-04T14:58:34.585Z,15.02
2023-04-04T15:01:08.381Z,7.07
2023-04-04T15:06:14.692Z,9.75
2023-04-04T15:08:48.096Z,5.90
2023-04-04T15:11:23.049Z,7.60
2023-04-04T15:13:56.344Z,13.95
2023-04-04T15:16:33.133Z,7.38
2023-04-04T15:19:06.599Z,11.48
2023-04-04T15:21:39.826Z,8.90
2023-04-04T15:24:13.122Z,7.80
2023-04-04T15:26:47.902Z,14.23
2023-04-04T15:29:21.146Z,11.68
2023-04-04T15:31:54.391Z,8.30
2023-04-04T15:34:27.709Z,14.30
2023-04-04T15:37:04.060Z,12.00
2023-04-04T15:39:49.756Z,8.70
2023-04-04T15:42:29.276Z,7.65
2023-04-04T15:45:04.585Z,5.30
2023-04-04T15:47:37.892Z,4.13
2023-04-04T15:50:11.900Z,5.63
2023-04-04T15:52:45.501Z,21.45
2023-04-04T15:55:20.708Z,5.00
2023-04-04T15:57:58.472Z,3.75
2023-04-04T16:00:33.992Z,5.78
2023-04-04T16:03:07.236Z,4.63
2023-04-04T16:05:40.504Z,8.48
2023-04-04T16:08:14.391Z,3.15
2023-04-04T16:10:47.547Z,10.30
2023-04-04T16:13:22.657Z,6.60
2023-04-04T16:15:57.055Z,3.45
2023-04-04T16:18:30.206Z,3.58
2023-04-04T16:21:04.137Z,3.10
2023-04-04T16:23:38.987Z,5.35
2023-04-04T16:26:12.174Z,6.57
2023-04-04T16:28:47.349Z,4.68
2023-04-04T16:31:20.655Z,6.72
2023-04-04T16:33:53.805Z,7.40
2023-04-04T16:36:27.160Z,6.85
2023-04-04T16:39:00.407Z,10.50
2023-04-04T16:41:34.184Z,8.65
2023-04-04T16:49:16.341Z,3.97
2023-04-04T16:51:49.552Z,9.57
2023-04-04T16:54:22.741Z,5.88
2023-04-04T16:56:56.563Z,4.10
2023-04-04T17:04:41.574Z,3.28
2023-04-04T17:07:15.113Z,6.45
2023-04-04T17:09:48.865Z,6.03
2023-04-04T17:12:22.245Z,7.13
2023-04-04T17:14:56.762Z,5.95
2023-04-04T17:17:30.081Z,4.65
2023-04-04T17:20:03.572Z,2.60
2023-04-04T17:22:37.522Z,5.25
2023-04-04T17:25:11.423Z,4.68
2023-04-04T17:27:44.581Z,5.60
2023-04-04T17:30:19.217Z,7.75
2023-04-04T17:32:54.475Z,9.77
2023-04-04T17:35:27.786Z,11.82
2023-04-04T17:38:00.927Z,14.55
2023-04-04T17:40:36.327Z,10.02
2023-04-04T17:43:09.532Z,5.90
2023-04-04T17:45:45.570Z,10.02
2023-04-04T17:48:18.724Z,17.33
2023-04-04T17:50:52.719Z,15.02
2023-04-04T17:53:27.410Z,17.40
2023-04-04T17:56:03.316Z,18.60
2023-04-04T17:58:46.283Z,14.63
2023-04-04T18:01:22.936Z,22.38
2023-04-04T18:03:58.038Z,13.55
2023-04-04T18:06:31.652Z,14.85
2023-04-04T18:09:05.338Z,17.55
2023-04-04T18:14:12.747Z,19.58
2023-04-04T18:16:48.150Z,10.55
2023-04-04T18:19:21.373Z,15.15
2023-04-04T18:21:59.703Z,15.30
2023-04-04T18:24:32.993Z,14.98
2023-04-04T18:27:06.383Z,20.80
2023-04-04T18:29:40.519Z,17.45
2023-04-04T18:32:15.046Z,17.52
2023-04-04T18:34:48.435Z,12.68
2023-04-04T18:37:23.255Z,15.07
2023-04-04T18:39:57.710Z,13.52
2023-04-04T18:42:31.116Z,23.38
2023-04-04T18:45:04.836Z,17.42
2023-04-04T18:52:45.605Z,25.90
2023-04-04T18:55:18.805Z,25.75
2023-04-04T18:57:52.077Z,21.85
2023-04-04T19:00:25.478Z,27.58
2023-04-04T19:03:00.031Z,24.80
2023-04-04T19:05:34.845Z,25.92
2023-04-04T19:08:09.369Z,25.38
2023-04-04T19:10:45.863Z,29.20
2023-04-04T19:13:19.294Z,26.98
2023-04-04T19:15:52.504Z,33.53
2023-04-04T19:18:27.452Z,32.83
2023-04-04T19:21:00.797Z,30.33
2023-04-04T19:23:34.063Z,29.20
2023-04-04T19:26:07.641Z,32.00
2023-04-04T19:28:41.621Z,38.80
2023-04-04T19:31:21.648Z,28.08
2023-04-04T19:33:56.803Z,34.08
2023-04-04T19:36:36.895Z,26.48
2023-04-04T19:39:10.830Z,32.63
2023-04-04T19:44:20.591Z,23.37
2023-04-04T19:46:55.003Z,28.27
2023-04-04T19:49:30.620Z,28.90
2023-04-04T19:52:05.528Z,23.80
2023-04-04T19:54:42.134Z,27.25
2023-04-04T19:57:19.603Z,22.52
2023-04-04T20:00:05.158Z,22.80
2023-04-04T20:02:53.296Z,27.40
2023-04-04T20:06:02.616Z,23.95
2023-04-04T20:08:41.185Z,26.63
2023-04-04T20:11:14.717Z,26.75
2023-04-04T20:13:48.112Z,27.40
2023-04-04T20:16:22.278Z,22.90
2023-04-04T20:19:01.919Z,19.42
2023-04-04T20:21:36.819Z,23.30
2023-04-04T20:24:10.762Z,20.77
2023-04-04T20:29:27.144Z,19.75
2023-04-04T20:32:02.071Z,22.10
2023-04-04T20:34:41.861Z,20.70
2023-04-04T20:37:20.063Z,24.95
2023-04-04T20:39:58.740Z,20.92
2023-04-04T20:42:40.533Z,22.20
2023-04-04T20:45:51.063Z,25.58
2023-04-04T20:48:43.139Z,20.02
2023-04-04T20:51:36.154Z,20.15
2023-04-04T20:54:18.345Z,20.30
2023-04-04T20:57:00.263Z,22.67
2023-04-04T20:59:49.130Z,24.75
2023-04-04T21:02:24.035Z,20.25
2023-04-04T21:04:59.831Z,21.52
2023-04-04T21:07:39.897Z,27.75
2023-04-04T21:10:25.597Z,21.05
2023-04-04T21:13:00.793Z,19.58
2023-04-04T21:15:34.446Z,21.77
2023-04-04T21:18:10.533Z,18.17
2023-04-04T21:21:07.444Z,18.60
2023-04-04T21:23:54.301Z,18.95
2023-04-04T21:26:31.954Z,21.27
2023-04-04T21:29:07.179Z,18.92
2023-04-04T21:31:43.094Z,19.95
2023-04-04T21:34:18.460Z,20.63
2023-04-04T21:36:55.287Z,21.45
2023-04-04T21:39:30.075Z,20.33
2023-04-04T21:42:08.559Z,19.15
2023-04-04T21:44:42.263Z,18.60
2023-04-04T21:47:15.858Z,23.10
2023-04-04T21:49:49.068Z,21.60
2023-04-04T21:52:22.296Z,17.25
2023-04-04T21:54:55.689Z,18.70
2023-04-04T21:57:30.201Z,24.38
2023-04-04T22:00:03.803Z,21.50
2023-04-04T22:02:38.192Z,20.77
2023-04-04T22:05:11.576Z,21.25
2023-04-04T22:07:44.818Z,21.23
2023-04-04T22:10:19.069Z,21.73
2023-04-04T22:12:54.869Z,21.25
2023-04-04T22:15:29.723Z,25.08
2023-04-04T22:18:05.153Z,17.48
2023-04-04T22:20:39.220Z,25.63
2023-04-04T22:23:13.978Z,18.23
2023-04-04T22:25:47.214Z,17.85
2023-04-04T22:28:24.913Z,23.20
2023-04-04T22:30:58.236Z,21.83
2023-04-04T22:33:34.052Z,21.17
2023-04-04T22:36:10.073Z,21.08
2023-04-04T22:38:43.516Z,20.65
2023-04-04T22:41:16.709Z,17.45
2023-04-04T22:43:51.204Z,18.65
2023-04-04T22:46:25.633Z,21.58
2023-04-04T22:49:06.407Z,17.23
2023-04-04T22:51:45.396Z,17.25
2023-04-04T22:54:19.177Z,23.38
2023-04-04T22:56:52.311Z,17.63
2023-04-04T22:59:26.924Z,25.95
2023-04-04T23:02:00.117Z,17.42
2023-04-04T23:04:33.600Z,17.45
2023-04-04T23:07:06.931Z,16.02
2023-04-04T23:09:40.139Z,17.65
2023-04-04T23:12:13.394Z,14.20
2023-04-04T23:14:49.520Z,13.23
2023-04-04T23:17:23.811Z,20.77
2023-04-04T23:19:57.150Z,18.77
2023-04-04T23:22:30.480Z,14.20
2023-04-04T23:25:03.743Z,15.10
2023-04-04T23:27:36.948Z,15.32
2023-04-04T23:30:12.404Z,18.13
2023-04-04T23:32:45.578Z,16.15
2023-04-04T23:35:18.790Z,17.80
2023-04-04T23:37:51.945Z,17.40
2023-04-04T23:40:25.187Z,12.93
2023-04-04T23:42:58.506Z,18.58
2023-04-04T23:45:37.221Z,13.57
2023-04-04T23:48:10.782Z,18.17
2023-04-04T23:50:44.324Z,13.05
2023-04-04T23:53:17.590Z,17.90
2023-04-04T23:55:51.779Z,14.88
2023-04-04T23:58:26.339Z,12.65
